sensor_id;sensor_type;location;lat;lon;timestamp;temperature;humidity
24560;DHT22;12727;49.934;8.656;2023-08-08T00:01:39;12.60;99.90
24560;DHT22;12727;49.934;8.656;2023-08-08T00:04:08;12.50;99.90
24560;DHT22;12727;49.934;8.656;2023-08-08T00:06:34;12.50;99.90
24560;DHT22;12727;49.934;8.656;2023-08-08T00:08:59;12.70;99.90
24560;DHT22;12727;49.934;8.656;2023-08-08T00:11:25;12.70;99.90
24560;DHT22;12727;49.934;8.656;2023-08-08T00:13:50;12.70;99.90
24560;DHT22;12727;49.934;8.656;2023-08-08T00:16:16;12.80;99.90
24560;DHT22;12727;49.934;8.656;2023-08-08T00:18:41;12.80;99.90
24560;DHT22;12727;49.934;8.656;2023-08-08T00:21:07;12.80;99.90
24560;DHT22;12727;49.934;8.656;2023-08-08T00:23:33;12.80;99.90
24560;DHT22;12727;49.934;8.656;2023-08-08T00:25:58;12.60;99.90
24560;DHT22;12727;49.934;8.656;2023-08-08T00:28:24;12.50;99.90
24560;DHT22;12727;49.934;8.656;2023-08-08T00:30:50;12.50;99.90
24560;DHT22;12727;49.934;8.656;2023-08-08T00:33:15;12.50;99.90
24560;DHT22;12727;49.934;8.656;2023-08-08T00:35:42;12.50;99.90
24560;DHT22;12727;49.934;8.656;2023-08-08T00:38:08;12.40;99.90
24560;DHT22;12727;49.934;8.656;2023-08-08T00:40:33;12.50;99.90
24560;DHT22;12727;49.934;8.656;2023-08-08T00:42:59;12.50;99.90
24560;DHT22;12727;49.934;8.656;2023-08-08T00:45:24;12.60;99.90
24560;DHT22;12727;49.934;8.656;2023-08-08T00:47:50;12.60;99.90
24560;DHT22;12727;49.934;8.656;2023-08-08T00:50:15;12.70;99.90
24560;DHT22;12727;49.934;8.656;2023-08-08T00:52:43;12.60;99.90
24560;DHT22;12727;49.934;8.656;2023-08-08T00:55:09;12.70;99.90
24560;DHT22;12727;49.934;8.656;2023-08-08T00:57:35;12.60;99.90
24560;DHT22;12727;49.934;8.656;2023-08-08T01:00:07;12.70;99.90
24560;DHT22;12727;49.934;8.656;2023-08-08T01:02:35;12.80;99.90
24560;DHT22;12727;49.934;8.656;2023-08-08T01:05:02;12.90;99.90
24560;DHT22;12727;49.934;8.656;2023-08-08T01:10:09;12.90;99.90
24560;DHT22;12727;49.934;8.656;2023-08-08T01:12:41;12.90;99.90
24560;DHT22;12727;49.934;8.656;2023-08-08T01:15:08;12.90;99.90
24560;DHT22;12727;49.934;8.656;2023-08-08T01:17:35;12.80;99.90
24560;DHT22;12727;49.934;8.656;2023-08-08T01:20:03;12.80;99.90
24560;DHT22;12727;49.934;8.656;2023-08-08T01:22:37;12.70;99.90
24560;DHT22;12727;49.934;8.656;2023-08-08T01:25:04;12.70;99.90
24560;DHT22;12727;49.934;8.656;2023-08-08T01:27:30;12.60;99.90
24560;DHT22;12727;49.934;8.656;2023-08-08T01:29:56;12.60;99.90
24560;DHT22;12727;49.934;8.656;2023-08-08T01:32:21;12.70;99.90
24560;DHT22;12727;49.934;8.656;2023-08-08T01:34:47;12.80;99.90
24560;DHT22;12727;49.934;8.656;2023-08-08T01:37:19;12.80;99.90
24560;DHT22;12727;49.934;8.656;2023-08-08T01:39:46;12.80;99.90
24560;DHT22;12727;49.934;8.656;2023-08-08T01:42:14;12.90;99.90
24560;DHT22;12727;49.934;8.656;2023-08-08T01:44:41;13.00;99.90
24560;DHT22;12727;49.934;8.656;2023-08-08T01:47:07;13.10;99.90
24560;DHT22;12727;49.934;8.656;2023-08-08T01:49:33;13.10;99.90
24560;DHT22;12727;49.934;8.656;2023-08-08T01:51:59;13.30;99.90
24560;DHT22;12727;49.934;8.656;2023-08-08T01:54:25;13.40;99.90
24560;DHT22;12727;49.934;8.656;2023-08-08T01:56:50;13.40;99.90
24560;DHT22;12727;49.934;8.656;2023-08-08T01:59:16;13.50;99.90
24560;DHT22;12727;49.934;8.656;2023-08-08T02:01:42;13.50;99.90
24560;DHT22;12727;49.934;8.656;2023-08-08T02:04:07;13.60;99.90
24560;DHT22;12727;49.934;8.656;2023-08-08T02:06:33;13.60;99.90
24560;DHT22;12727;49.934;8.656;2023-08-08T02:08:58;13.70;99.90
24560;DHT22;12727;49.934;8.656;2023-08-08T02:11:24;13.70;99.90
24560;DHT22;12727;49.934;8.656;2023-08-08T02:13:49;13.80;99.90
24560;DHT22;12727;49.934;8.656;2023-08-08T02:16:15;13.80;99.90
24560;DHT22;12727;49.934;8.656;2023-08-08T02:18:40;13.70;99.90
24560;DHT22;12727;49.934;8.656;2023-08-08T02:21:07;13.80;99.90
24560;DHT22;12727;49.934;8.656;2023-08-08T02:23:33;13.70;99.90
24560;DHT22;12727;49.934;8.656;2023-08-08T02:25:59;13.80;99.90
24560;DHT22;12727;49.934;8.656;2023-08-08T02:28:25;13.80;99.90
24560;DHT22;12727;49.934;8.656;2023-08-08T02:30:50;13.80;99.90
24560;DHT22;12727;49.934;8.656;2023-08-08T02:33:16;13.80;99.90
24560;DHT22;12727;49.934;8.656;2023-08-08T02:35:41;13.80;99.90
24560;DHT22;12727;49.934;8.656;2023-08-08T02:38:07;13.80;99.90
24560;DHT22;12727;49.934;8.656;2023-08-08T02:40:32;13.80;99.90
24560;DHT22;12727;49.934;8.656;2023-08-08T02:42:59;13.70;99.90
24560;DHT22;12727;49.934;8.656;2023-08-08T02:45:24;13.70;99.90
24560;DHT22;12727;49.934;8.656;2023-08-08T02:47:50;13.70;99.90
24560;DHT22;12727;49.934;8.656;2023-08-08T02:50:15;13.80;99.90
24560;DHT22;12727;49.934;8.656;2023-08-08T02:52:41;13.70;99.90
24560;DHT22;12727;49.934;8.656;2023-08-08T02:55:07;13.60;99.90
24560;DHT22;12727;49.934;8.656;2023-08-08T02:57:32;13.60;99.90
24560;DHT22;12727;49.934;8.656;2023-08-08T02:59:58;13.50;99.90
24560;DHT22;12727;49.934;8.656;2023-08-08T03:02:23;13.40;99.90
24560;DHT22;12727;49.934;8.656;2023-08-08T03:04:49;13.30;99.90
24560;DHT22;12727;49.934;8.656;2023-08-08T03:07:15;13.30;99.90
24560;DHT22;12727;49.934;8.656;2023-08-08T03:09:40;13.30;99.90
24560;DHT22;12727;49.934;8.656;2023-08-08T03:12:06;13.20;99.90
24560;DHT22;12727;49.934;8.656;2023-08-08T03:14:32;13.10;99.90
24560;DHT22;12727;49.934;8.656;2023-08-08T03:16:59;13.20;99.90
24560;DHT22;12727;49.934;8.656;2023-08-08T03:19:24;13.20;99.90
24560;DHT22;12727;49.934;8.656;2023-08-08T03:21:50;13.00;99.90
24560;DHT22;12727;49.934;8.656;2023-08-08T03:24:15;13.00;99.90
24560;DHT22;12727;49.934;8.656;2023-08-08T03:26:41;12.90;99.90
24560;DHT22;12727;49.934;8.656;2023-08-08T03:29:06;12.90;99.90
24560;DHT22;12727;49.934;8.656;2023-08-08T03:31:35;12.90;99.90
24560;DHT22;12727;49.934;8.656;2023-08-08T03:34:01;12.80;99.90
24560;DHT22;12727;49.934;8.656;2023-08-08T03:36:26;12.80;99.90
24560;DHT22;12727;49.934;8.656;2023-08-08T03:38:52;12.80;99.90
24560;DHT22;12727;49.934;8.656;2023-08-08T03:41:17;12.70;99.90
24560;DHT22;12727;49.934;8.656;2023-08-08T03:43:43;12.70;99.90
24560;DHT22;12727;49.934;8.656;2023-08-08T03:46:08;12.70;99.90
24560;DHT22;12727;49.934;8.656;2023-08-08T03:48:34;12.70;99.90
24560;DHT22;12727;49.934;8.656;2023-08-08T03:51:00;12.60;99.90
24560;DHT22;12727;49.934;8.656;2023-08-08T03:53:25;12.50;99.90
24560;DHT22;12727;49.934;8.656;2023-08-08T03:55:51;12.50;99.90
24560;DHT22;12727;49.934;8.656;2023-08-08T03:58:16;12.60;99.90
24560;DHT22;12727;49.934;8.656;2023-08-08T04:00:42;12.60;99.90
24560;DHT22;12727;49.934;8.656;2023-08-08T04:03:13;12.60;99.90
24560;DHT22;12727;49.934;8.656;2023-08-08T04:05:40;12.60;99.90
24560;DHT22;12727;49.934;8.656;2023-08-08T04:08:06;12.50;99.90
24560;DHT22;12727;49.934;8.656;2023-08-08T04:10:32;12.40;99.90
24560;DHT22;12727;49.934;8.656;2023-08-08T04:12:57;12.30;99.90
24560;DHT22;12727;49.934;8.656;2023-08-08T04:15:23;12.30;99.90
24560;DHT22;12727;49.934;8.656;2023-08-08T04:17:49;12.30;99.90
24560;DHT22;12727;49.934;8.656;2023-08-08T04:20:14;12.40;99.90
24560;DHT22;12727;49.934;8.656;2023-08-08T04:22:40;12.40;99.90
24560;DHT22;12727;49.934;8.656;2023-08-08T04:25:06;12.50;99.90
24560;DHT22;12727;49.934;8.656;2023-08-08T04:27:32;12.50;99.90
24560;DHT22;12727;49.934;8.656;2023-08-08T04:29:57;12.40;99.90
24560;DHT22;12727;49.934;8.656;2023-08-08T04:32:23;12.40;99.90
24560;DHT22;12727;49.934;8.656;2023-08-08T04:34:48;12.40;99.90
24560;DHT22;12727;49.934;8.656;2023-08-08T04:37:14;12.40;99.90
24560;DHT22;12727;49.934;8.656;2023-08-08T04:39:39;12.50;99.90
24560;DHT22;12727;49.934;8.656;2023-08-08T04:42:05;12.40;99.90
24560;DHT22;12727;49.934;8.656;2023-08-08T04:44:31;12.50;99.90
24560;DHT22;12727;49.934;8.656;2023-08-08T04:46:57;12.50;99.90
24560;DHT22;12727;49.934;8.656;2023-08-08T04:49:23;12.50;99.90
24560;DHT22;12727;49.934;8.656;2023-08-08T04:51:48;12.70;99.90
24560;DHT22;12727;49.934;8.656;2023-08-08T04:54:14;12.70;99.90
24560;DHT22;12727;49.934;8.656;2023-08-08T04:56:39;12.70;99.90
24560;DHT22;12727;49.934;8.656;2023-08-08T04:59:05;12.60;99.90
24560;DHT22;12727;49.934;8.656;2023-08-08T05:01:30;12.60;99.90
24560;DHT22;12727;49.934;8.656;2023-08-08T05:03:56;12.60;99.90
24560;DHT22;12727;49.934;8.656;2023-08-08T05:06:21;12.50;99.90
24560;DHT22;12727;49.934;8.656;2023-08-08T05:08:49;12.60;99.90
24560;DHT22;12727;49.934;8.656;2023-08-08T05:11:15;12.60;99.90
24560;DHT22;12727;49.934;8.656;2023-08-08T05:13:41;12.60;99.90
24560;DHT22;12727;49.934;8.656;2023-08-08T05:16:08;12.60;99.90
24560;DHT22;12727;49.934;8.656;2023-08-08T05:18:33;12.60;99.90
24560;DHT22;12727;49.934;8.656;2023-08-08T05:20:59;12.70;99.90
24560;DHT22;12727;49.934;8.656;2023-08-08T05:23:24;12.70;99.90
24560;DHT22;12727;49.934;8.656;2023-08-08T05:25:50;12.70;99.90
24560;DHT22;12727;49.934;8.656;2023-08-08T05:28:15;12.80;99.90
24560;DHT22;12727;49.934;8.656;2023-08-08T05:30:41;12.80;99.90
24560;DHT22;12727;49.934;8.656;2023-08-08T05:33:07;12.90;99.90
24560;DHT22;12727;49.934;8.656;2023-08-08T05:35:32;13.00;99.90
24560;DHT22;12727;49.934;8.656;2023-08-08T05:37:57;13.00;99.90
24560;DHT22;12727;49.934;8.656;2023-08-08T05:40:23;13.10;99.90
24560;DHT22;12727;49.934;8.656;2023-08-08T05:42:49;13.20;99.90
24560;DHT22;12727;49.934;8.656;2023-08-08T05:45:14;13.30;99.90
24560;DHT22;12727;49.934;8.656;2023-08-08T05:47:40;13.40;99.90
24560;DHT22;12727;49.934;8.656;2023-08-08T05:50:06;13.50;99.90
24560;DHT22;12727;49.934;8.656;2023-08-08T05:52:32;13.60;99.90
24560;DHT22;12727;49.934;8.656;2023-08-08T05:54:57;13.70;99.90
24560;DHT22;12727;49.934;8.656;2023-08-08T05:57:25;13.70;99.90
24560;DHT22;12727;49.934;8.656;2023-08-08T05:59:50;13.80;99.90
24560;DHT22;12727;49.934;8.656;2023-08-08T06:02:16;13.90;99.90
24560;DHT22;12727;49.934;8.656;2023-08-08T06:04:41;13.90;99.90
24560;DHT22;12727;49.934;8.656;2023-08-08T06:07:07;14.00;99.90
24560;DHT22;12727;49.934;8.656;2023-08-08T06:09:33;14.10;99.90
24560;DHT22;12727;49.934;8.656;2023-08-08T06:11:58;14.20;99.90
24560;DHT22;12727;49.934;8.656;2023-08-08T06:14:24;14.30;99.90
24560;DHT22;12727;49.934;8.656;2023-08-08T06:16:49;14.40;99.90
24560;DHT22;12727;49.934;8.656;2023-08-08T06:19:15;14.50;99.90
24560;DHT22;12727;49.934;8.656;2023-08-08T06:21:41;14.70;99.90
24560;DHT22;12727;49.934;8.656;2023-08-08T06:24:07;14.90;99.90
24560;DHT22;12727;49.934;8.656;2023-08-08T06:26:33;15.10;99.90
24560;DHT22;12727;49.934;8.656;2023-08-08T06:28:59;15.20;99.90
24560;DHT22;12727;49.934;8.656;2023-08-08T06:31:24;15.40;99.90
24560;DHT22;12727;49.934;8.656;2023-08-08T06:33:50;15.60;99.90
24560;DHT22;12727;49.934;8.656;2023-08-08T06:36:16;15.70;99.90
24560;DHT22;12727;49.934;8.656;2023-08-08T06:38:41;15.90;99.90
24560;DHT22;12727;49.934;8.656;2023-08-08T06:41:08;16.10;99.90
24560;DHT22;12727;49.934;8.656;2023-08-08T06:43:33;16.20;99.90
24560;DHT22;12727;49.934;8.656;2023-08-08T06:45:59;16.20;99.90
24560;DHT22;12727;49.934;8.656;2023-08-08T06:48:26;16.30;99.90
24560;DHT22;12727;49.934;8.656;2023-08-08T06:50:51;16.50;99.90
24560;DHT22;12727;49.934;8.656;2023-08-08T06:53:17;16.70;99.90
24560;DHT22;12727;49.934;8.656;2023-08-08T06:55:43;16.90;99.90
24560;DHT22;12727;49.934;8.656;2023-08-08T06:58:09;17.00;99.90
24560;DHT22;12727;49.934;8.656;2023-08-08T07:00:34;17.20;99.90
24560;DHT22;12727;49.934;8.656;2023-08-08T07:03:00;17.50;99.90
24560;DHT22;12727;49.934;8.656;2023-08-08T07:05:25;17.60;99.90
24560;DHT22;12727;49.934;8.656;2023-08-08T07:07:51;17.70;99.90
24560;DHT22;12727;49.934;8.656;2023-08-08T07:10:18;17.60;99.90
24560;DHT22;12727;49.934;8.656;2023-08-08T07:12:43;17.80;99.90
24560;DHT22;12727;49.934;8.656;2023-08-08T07:15:09;17.80;99.90
24560;DHT22;12727;49.934;8.656;2023-08-08T07:17:35;18.00;99.90
24560;DHT22;12727;49.934;8.656;2023-08-08T07:20:01;18.30;99.90
24560;DHT22;12727;49.934;8.656;2023-08-08T07:22:27;18.40;99.90
24560;DHT22;12727;49.934;8.656;2023-08-08T07:24:53;18.80;99.90
24560;DHT22;12727;49.934;8.656;2023-08-08T07:27:18;19.00;99.90
24560;DHT22;12727;49.934;8.656;2023-08-08T07:29:44;19.20;99.90
24560;DHT22;12727;49.934;8.656;2023-08-08T07:32:10;19.40;99.90
24560;DHT22;12727;49.934;8.656;2023-08-08T07:34:35;19.60;99.90
24560;DHT22;12727;49.934;8.656;2023-08-08T07:37:02;19.70;99.40
24560;DHT22;12727;49.934;8.656;2023-08-08T07:39:28;19.90;99.90
24560;DHT22;12727;49.934;8.656;2023-08-08T07:41:54;20.00;98.50
24560;DHT22;12727;49.934;8.656;2023-08-08T07:44:20;19.80;97.40
24560;DHT22;12727;49.934;8.656;2023-08-08T07:46:46;19.90;96.60
24560;DHT22;12727;49.934;8.656;2023-08-08T07:49:13;20.20;96.40
24560;DHT22;12727;49.934;8.656;2023-08-08T07:51:38;20.50;95.50
24560;DHT22;12727;49.934;8.656;2023-08-08T07:54:04;20.60;94.50
24560;DHT22;12727;49.934;8.656;2023-08-08T07:56:36;20.80;93.80
24560;DHT22;12727;49.934;8.656;2023-08-08T07:59:01;20.70;93.10
24560;DHT22;12727;49.934;8.656;2023-08-08T08:01:28;20.40;91.70
24560;DHT22;12727;49.934;8.656;2023-08-08T08:03:54;20.00;93.10
24560;DHT22;12727;49.934;8.656;2023-08-08T08:06:19;20.10;93.00
24560;DHT22;12727;49.934;8.656;2023-08-08T08:08:45;20.20;92.60
24560;DHT22;12727;49.934;8.656;2023-08-08T08:11:10;20.20;91.90
24560;DHT22;12727;49.934;8.656;2023-08-08T08:13:38;20.50;92.60
24560;DHT22;12727;49.934;8.656;2023-08-08T08:16:04;20.60;91.70
24560;DHT22;12727;49.934;8.656;2023-08-08T08:18:29;20.40;91.70
24560;DHT22;12727;49.934;8.656;2023-08-08T08:20:55;20.10;91.30
24560;DHT22;12727;49.934;8.656;2023-08-08T08:23:21;20.20;91.30
24560;DHT22;12727;49.934;8.656;2023-08-08T08:25:46;19.70;91.60
24560;DHT22;12727;49.934;8.656;2023-08-08T08:28:14;19.60;91.60
24560;DHT22;12727;49.934;8.656;2023-08-08T08:30:40;19.50;91.90
24560;DHT22;12727;49.934;8.656;2023-08-08T08:33:05;19.70;91.90
24560;DHT22;12727;49.934;8.656;2023-08-08T08:35:33;19.80;91.50
24560;DHT22;12727;49.934;8.656;2023-08-08T08:37:59;19.70;91.60
24560;DHT22;12727;49.934;8.656;2023-08-08T08:40:25;19.90;91.80
24560;DHT22;12727;49.934;8.656;2023-08-08T08:42:51;20.00;91.60
24560;DHT22;12727;49.934;8.656;2023-08-08T08:45:20;20.10;91.00
24560;DHT22;12727;49.934;8.656;2023-08-08T08:47:47;20.20;91.10
24560;DHT22;12727;49.934;8.656;2023-08-08T08:50:15;20.30;90.60
24560;DHT22;12727;49.934;8.656;2023-08-08T08:52:42;20.10;90.00
24560;DHT22;12727;49.934;8.656;2023-08-08T08:55:08;19.90;87.60
24560;DHT22;12727;49.934;8.656;2023-08-08T08:57:34;20.00;89.10
24560;DHT22;12727;49.934;8.656;2023-08-08T09:00:01;20.10;88.70
24560;DHT22;12727;49.934;8.656;2023-08-08T09:02:26;20.30;87.00
24560;DHT22;12727;49.934;8.656;2023-08-08T09:04:52;20.30;85.00
24560;DHT22;12727;49.934;8.656;2023-08-08T09:07:20;20.30;84.90
24560;DHT22;12727;49.934;8.656;2023-08-08T09:09:48;20.30;83.50
24560;DHT22;12727;49.934;8.656;2023-08-08T09:12:14;20.20;83.20
24560;DHT22;12727;49.934;8.656;2023-08-08T09:14:41;20.20;83.40
24560;DHT22;12727;49.934;8.656;2023-08-08T09:17:14;20.30;83.00
24560;DHT22;12727;49.934;8.656;2023-08-08T09:19:43;20.10;81.90
24560;DHT22;12727;49.934;8.656;2023-08-08T09:22:09;20.40;82.30
24560;DHT22;12727;49.934;8.656;2023-08-08T09:24:39;20.80;80.60
24560;DHT22;12727;49.934;8.656;2023-08-08T09:27:06;21.20;80.10
24560;DHT22;12727;49.934;8.656;2023-08-08T09:29:33;21.00;80.80
24560;DHT22;12727;49.934;8.656;2023-08-08T09:31:59;20.90;79.80
24560;DHT22;12727;49.934;8.656;2023-08-08T09:34:25;21.10;81.20
24560;DHT22;12727;49.934;8.656;2023-08-08T09:36:52;21.30;79.40
24560;DHT22;12727;49.934;8.656;2023-08-08T09:39:18;21.50;78.10
24560;DHT22;12727;49.934;8.656;2023-08-08T09:41:46;21.80;78.50
24560;DHT22;12727;49.934;8.656;2023-08-08T09:44:12;22.10;77.80
24560;DHT22;12727;49.934;8.656;2023-08-08T09:46:38;22.10;76.50
24560;DHT22;12727;49.934;8.656;2023-08-08T09:49:05;22.20;75.00
24560;DHT22;12727;49.934;8.656;2023-08-08T09:51:32;22.20;75.50
24560;DHT22;12727;49.934;8.656;2023-08-08T09:53:59;22.40;75.20
24560;DHT22;12727;49.934;8.656;2023-08-08T09:56:26;22.40;74.60
24560;DHT22;12727;49.934;8.656;2023-08-08T09:58:52;22.50;75.30
24560;DHT22;12727;49.934;8.656;2023-08-08T10:01:20;22.30;74.40
24560;DHT22;12727;49.934;8.656;2023-08-08T10:03:45;21.80;74.80
24560;DHT22;12727;49.934;8.656;2023-08-08T10:06:12;21.80;76.30
24560;DHT22;12727;49.934;8.656;2023-08-08T10:08:38;22.50;74.70
24560;DHT22;12727;49.934;8.656;2023-08-08T10:11:05;22.60;73.30
24560;DHT22;12727;49.934;8.656;2023-08-08T10:13:32;23.10;72.40
24560;DHT22;12727;49.934;8.656;2023-08-08T10:15:57;23.70;72.40
24560;DHT22;12727;49.934;8.656;2023-08-08T10:18:29;24.00;70.30
24560;DHT22;12727;49.934;8.656;2023-08-08T10:20:55;23.80;68.40
24560;DHT22;12727;49.934;8.656;2023-08-08T10:23:22;23.30;69.40
24560;DHT22;12727;49.934;8.656;2023-08-08T10:25:51;23.30;69.20
24560;DHT22;12727;49.934;8.656;2023-08-08T10:28:19;23.10;71.10
24560;DHT22;12727;49.934;8.656;2023-08-08T10:30:56;23.20;70.80
24560;DHT22;12727;49.934;8.656;2023-08-08T10:33:26;22.80;69.60
24560;DHT22;12727;49.934;8.656;2023-08-08T10:38:21;21.90;70.10
24560;DHT22;12727;49.934;8.656;2023-08-08T10:40:47;22.20;70.80
24560;DHT22;12727;49.934;8.656;2023-08-08T10:43:13;22.20;70.80
24560;DHT22;12727;49.934;8.656;2023-08-08T10:45:41;21.80;72.20
24560;DHT22;12727;49.934;8.656;2023-08-08T10:48:10;21.50;71.90
24560;DHT22;12727;49.934;8.656;2023-08-08T10:50:42;21.30;73.10
24560;DHT22;12727;49.934;8.656;2023-08-08T10:53:08;21.20;74.50
24560;DHT22;12727;49.934;8.656;2023-08-08T10:55:36;21.50;74.50
24560;DHT22;12727;49.934;8.656;2023-08-08T10:58:09;21.70;74.40
24560;DHT22;12727;49.934;8.656;2023-08-08T11:00:39;21.60;74.20
24560;DHT22;12727;49.934;8.656;2023-08-08T11:03:05;21.50;74.40
24560;DHT22;12727;49.934;8.656;2023-08-08T11:05:36;21.40;74.50
24560;DHT22;12727;49.934;8.656;2023-08-08T11:08:02;21.20;74.50
24560;DHT22;12727;49.934;8.656;2023-08-08T11:10:29;21.20;74.30
24560;DHT22;12727;49.934;8.656;2023-08-08T11:13:02;21.10;74.40
24560;DHT22;12727;49.934;8.656;2023-08-08T11:15:36;21.20;74.90
24560;DHT22;12727;49.934;8.656;2023-08-08T11:18:02;21.30;74.60
24560;DHT22;12727;49.934;8.656;2023-08-08T11:20:32;21.50;74.20
24560;DHT22;12727;49.934;8.656;2023-08-08T11:22:58;21.70;73.80
24560;DHT22;12727;49.934;8.656;2023-08-08T11:25:29;21.50;72.30
24560;DHT22;12727;49.934;8.656;2023-08-08T11:27:56;21.40;72.20
24560;DHT22;12727;49.934;8.656;2023-08-08T11:30:23;21.40;73.20
24560;DHT22;12727;49.934;8.656;2023-08-08T11:32:50;21.60;73.10
24560;DHT22;12727;49.934;8.656;2023-08-08T11:35:17;21.60;72.10
24560;DHT22;12727;49.934;8.656;2023-08-08T11:37:45;21.70;70.50
24560;DHT22;12727;49.934;8.656;2023-08-08T11:40:11;21.70;70.10
24560;DHT22;12727;49.934;8.656;2023-08-08T11:42:38;22.00;70.80
24560;DHT22;12727;49.934;8.656;2023-08-08T11:45:04;22.10;70.00
24560;DHT22;12727;49.934;8.656;2023-08-08T11:47:30;22.00;70.40
24560;DHT22;12727;49.934;8.656;2023-08-08T11:50:02;22.10;70.70
24560;DHT22;12727;49.934;8.656;2023-08-08T11:52:28;22.10;69.70
24560;DHT22;12727;49.934;8.656;2023-08-08T11:54:55;22.10;69.70
24560;DHT22;12727;49.934;8.656;2023-08-08T11:57:20;22.10;69.50
24560;DHT22;12727;49.934;8.656;2023-08-08T11:59:48;22.20;68.40
24560;DHT22;12727;49.934;8.656;2023-08-08T12:02:15;22.00;67.80
24560;DHT22;12727;49.934;8.656;2023-08-08T12:04:45;22.10;68.80
24560;DHT22;12727;49.934;8.656;2023-08-08T12:07:11;22.10;67.70
24560;DHT22;12727;49.934;8.656;2023-08-08T12:09:37;22.20;67.60
24560;DHT22;12727;49.934;8.656;2023-08-08T12:12:03;22.10;68.00
24560;DHT22;12727;49.934;8.656;2023-08-08T12:14:30;22.00;68.90
24560;DHT22;12727;49.934;8.656;2023-08-08T12:16:55;22.10;68.90
24560;DHT22;12727;49.934;8.656;2023-08-08T12:19:25;22.30;69.70
24560;DHT22;12727;49.934;8.656;2023-08-08T12:21:51;22.50;69.30
24560;DHT22;12727;49.934;8.656;2023-08-08T12:24:18;22.30;68.00
24560;DHT22;12727;49.934;8.656;2023-08-08T12:26:44;22.40;68.20
24560;DHT22;12727;49.934;8.656;2023-08-08T12:29:09;22.40;67.80
24560;DHT22;12727;49.934;8.656;2023-08-08T12:31:35;22.60;68.80
24560;DHT22;12727;49.934;8.656;2023-08-08T12:34:01;22.50;67.00
24560;DHT22;12727;49.934;8.656;2023-08-08T12:36:26;22.50;67.50
24560;DHT22;12727;49.934;8.656;2023-08-08T12:38:52;22.40;67.30
24560;DHT22;12727;49.934;8.656;2023-08-08T12:41:18;22.20;67.80
24560;DHT22;12727;49.934;8.656;2023-08-08T12:43:43;22.10;68.70
24560;DHT22;12727;49.934;8.656;2023-08-08T12:46:09;22.20;69.40
24560;DHT22;12727;49.934;8.656;2023-08-08T12:48:34;22.30;69.40
24560;DHT22;12727;49.934;8.656;2023-08-08T12:51:00;22.20;69.20
24560;DHT22;12727;49.934;8.656;2023-08-08T12:53:26;22.50;69.60
24560;DHT22;12727;49.934;8.656;2023-08-08T12:55:51;22.60;67.90
24560;DHT22;12727;49.934;8.656;2023-08-08T12:58:17;22.70;63.00
24560;DHT22;12727;49.934;8.656;2023-08-08T13:00:43;22.40;60.50
24560;DHT22;12727;49.934;8.656;2023-08-08T13:03:08;22.50;63.30
24560;DHT22;12727;49.934;8.656;2023-08-08T13:05:35;22.60;62.70
24560;DHT22;12727;49.934;8.656;2023-08-08T13:08:01;22.60;61.90
24560;DHT22;12727;49.934;8.656;2023-08-08T13:10:26;22.40;61.90
24560;DHT22;12727;49.934;8.656;2023-08-08T13:12:52;22.20;62.20
24560;DHT22;12727;49.934;8.656;2023-08-08T13:15:17;22.30;63.00
24560;DHT22;12727;49.934;8.656;2023-08-08T13:17:43;22.60;63.90
24560;DHT22;12727;49.934;8.656;2023-08-08T13:20:09;22.40;62.30
24560;DHT22;12727;49.934;8.656;2023-08-08T13:22:35;22.10;62.30
24560;DHT22;12727;49.934;8.656;2023-08-08T13:25:00;21.80;63.40
24560;DHT22;12727;49.934;8.656;2023-08-08T13:27:26;22.00;64.50
24560;DHT22;12727;49.934;8.656;2023-08-08T13:29:51;22.30;63.30
24560;DHT22;12727;49.934;8.656;2023-08-08T13:32:17;22.30;62.70
24560;DHT22;12727;49.934;8.656;2023-08-08T13:34:43;22.30;61.90
24560;DHT22;12727;49.934;8.656;2023-08-08T13:37:08;22.20;62.30
24560;DHT22;12727;49.934;8.656;2023-08-08T13:39:34;22.20;61.90
24560;DHT22;12727;49.934;8.656;2023-08-08T13:41:59;22.10;61.80
24560;DHT22;12727;49.934;8.656;2023-08-08T13:44:25;22.00;62.40
24560;DHT22;12727;49.934;8.656;2023-08-08T13:46:50;22.00;63.40
24560;DHT22;12727;49.934;8.656;2023-08-08T13:49:17;22.30;62.60
24560;DHT22;12727;49.934;8.656;2023-08-08T13:51:42;22.00;62.10
24560;DHT22;12727;49.934;8.656;2023-08-08T13:54:08;22.10;62.90
24560;DHT22;12727;49.934;8.656;2023-08-08T13:56:33;22.10;62.50
24560;DHT22;12727;49.934;8.656;2023-08-08T13:58:59;22.10;62.90
24560;DHT22;12727;49.934;8.656;2023-08-08T14:01:24;22.30;62.80
24560;DHT22;12727;49.934;8.656;2023-08-08T14:03:50;22.40;63.00
24560;DHT22;12727;49.934;8.656;2023-08-08T14:06:16;22.30;62.70
24560;DHT22;12727;49.934;8.656;2023-08-08T14:08:41;22.20;61.50
24560;DHT22;12727;49.934;8.656;2023-08-08T14:11:07;22.10;62.90
24560;DHT22;12727;49.934;8.656;2023-08-08T14:13:33;21.90;62.50
24560;DHT22;12727;49.934;8.656;2023-08-08T14:16:00;21.90;62.90
24560;DHT22;12727;49.934;8.656;2023-08-08T14:18:25;22.00;63.70
24560;DHT22;12727;49.934;8.656;2023-08-08T14:20:51;22.00;63.90
24560;DHT22;12727;49.934;8.656;2023-08-08T14:23:16;21.90;63.90
24560;DHT22;12727;49.934;8.656;2023-08-08T14:25:42;21.90;63.60
24560;DHT22;12727;49.934;8.656;2023-08-08T14:28:07;21.90;64.20
24560;DHT22;12727;49.934;8.656;2023-08-08T14:30:33;21.70;64.60
24560;DHT22;12727;49.934;8.656;2023-08-08T14:32:58;21.50;65.00
24560;DHT22;12727;49.934;8.656;2023-08-08T14:35:24;21.40;65.70
24560;DHT22;12727;49.934;8.656;2023-08-08T14:37:49;21.40;66.20
24560;DHT22;12727;49.934;8.656;2023-08-08T14:40:15;21.30;66.50
24560;DHT22;12727;49.934;8.656;2023-08-08T14:42:41;21.10;66.50
24560;DHT22;12727;49.934;8.656;2023-08-08T14:45:07;21.00;66.80
24560;DHT22;12727;49.934;8.656;2023-08-08T14:47:32;21.00;67.10
24560;DHT22;12727;49.934;8.656;2023-08-08T14:49:58;20.90;67.10
24560;DHT22;12727;49.934;8.656;2023-08-08T14:52:24;20.80;67.40
24560;DHT22;12727;49.934;8.656;2023-08-08T14:54:51;20.80;68.20
24560;DHT22;12727;49.934;8.656;2023-08-08T14:57:16;20.80;68.60
24560;DHT22;12727;49.934;8.656;2023-08-08T14:59:42;20.70;68.90
24560;DHT22;12727;49.934;8.656;2023-08-08T15:02:08;20.70;69.50
24560;DHT22;12727;49.934;8.656;2023-08-08T15:04:33;20.70;70.10
24560;DHT22;12727;49.934;8.656;2023-08-08T15:06:59;20.60;70.60
24560;DHT22;12727;49.934;8.656;2023-08-08T15:09:24;20.50;71.10
24560;DHT22;12727;49.934;8.656;2023-08-08T15:11:50;20.40;72.00
24560;DHT22;12727;49.934;8.656;2023-08-08T15:14:16;20.40;72.60
24560;DHT22;12727;49.934;8.656;2023-08-08T15:16:41;20.20;73.10
24560;DHT22;12727;49.934;8.656;2023-08-08T15:19:08;20.20;73.90
24560;DHT22;12727;49.934;8.656;2023-08-08T15:21:34;20.20;73.90
24560;DHT22;12727;49.934;8.656;2023-08-08T15:23:59;20.20;73.80
24560;DHT22;12727;49.934;8.656;2023-08-08T15:26:25;20.30;74.10
24560;DHT22;12727;49.934;8.656;2023-08-08T15:28:50;20.40;74.10